Aviation Digital Data Service (ADDS)

Output produced by METARs form (0411 UTC 28 July 2014)
found at http://aviationweather.gov/adds/metars/
 
KBDR 280237Z 2803/2824 18006KT P6SM FEW050 BKN250 
     FM280700 19008KT P6SM VCSH SCT040 BKN100 
     TEMPO 2807/2810 5SM TSRA BKN015CB 
     FM281300 23012KT P6SM BKN050 
     FM281700 27015G22KT P6SM SCT050